METAR Data
IDs: Format: Raw Decoded Include TAF

Data at: 0446 UTC 30 Jun 2022

KTLH 300353Z AUTO 17003KT 10SM CLR 23/22 A3017 RMK AO2 SLP217 OCNL LTGIC SE TS SE MOV N T02330222 $